createdAt,value
2023-01-03T00:00:24.793Z,60.47
2023-01-03T00:02:51.903Z,63.95
2023-01-03T00:05:18.885Z,65.70
2023-01-03T00:07:45.725Z,66.20
2023-01-03T00:10:12.708Z,67.00
2023-01-03T00:12:39.748Z,65.95
2023-01-03T00:15:07.081Z,62.47
2023-01-03T00:17:34.090Z,62.40
2023-01-03T00:20:01.113Z,66.57
2023-01-03T00:22:31.837Z,65.85
2023-01-03T00:24:58.778Z,67.03
2023-01-03T00:27:27.071Z,67.28
2023-01-03T00:29:55.517Z,72.43
2023-01-03T00:32:22.434Z,70.43
2023-01-03T00:34:49.267Z,74.03
2023-01-03T00:37:16.405Z,73.88
2023-01-03T00:39:43.971Z,71.68
2023-01-03T00:42:10.931Z,72.47
2023-01-03T00:44:37.865Z,71.55
2023-01-03T00:47:04.871Z,72.35
2023-01-03T00:49:31.761Z,70.80
2023-01-03T00:51:58.874Z,73.07
2023-01-03T00:54:25.889Z,71.82
2023-01-03T00:56:53.181Z,76.25
2023-01-03T00:59:21.571Z,73.45
2023-01-03T01:01:54.187Z,74.32
2023-01-03T01:04:25.087Z,73.53
2023-01-03T01:06:59.036Z,72.25
2023-01-03T01:09:37.739Z,70.93
2023-01-03T01:12:07.148Z,69.38
2023-01-03T01:14:34.344Z,70.50
2023-01-03T01:17:04.627Z,69.13
2023-01-03T01:19:37.558Z,69.03
2023-01-03T01:22:05.005Z,69.40
2023-01-03T01:24:32.383Z,68.20
2023-01-03T01:26:59.424Z,65.78
2023-01-03T01:29:27.524Z,67.40
2023-01-03T01:31:54.501Z,64.50
2023-01-03T01:34:21.769Z,61.70
2023-01-03T01:36:49.118Z,58.10
2023-01-03T01:39:27.870Z,55.57
2023-01-03T01:42:20.292Z,55.13
2023-01-03T01:44:52.484Z,56.45
2023-01-03T01:47:39.556Z,59.35
2023-01-03T01:50:30.549Z,55.95
2023-01-03T01:53:15.435Z,55.13
2023-01-03T01:55:56.225Z,54.70
2023-01-03T01:58:26.728Z,56.35
2023-01-03T02:00:54.407Z,61.22
2023-01-03T02:03:21.324Z,66.18
2023-01-03T02:05:52.409Z,59.83
2023-01-03T04:09:48.316Z,94.35
2023-01-03T04:12:15.236Z,93.25
2023-01-03T04:14:42.163Z,92.18
2023-01-03T04:17:10.695Z,94.80
2023-01-03T04:19:37.600Z,92.97
2023-01-03T04:22:04.559Z,87.72
2023-01-03T04:24:31.367Z,89.88
2023-01-03T04:26:58.251Z,90.82
2023-01-03T04:29:25.238Z,89.75
2023-01-03T04:31:52.248Z,91.65
2023-01-03T04:34:19.180Z,92.65
2023-01-03T04:36:46.282Z,92.38
2023-01-03T04:39:13.173Z,88.95
2023-01-03T04:41:40.150Z,91.82
2023-01-03T04:44:07.002Z,91.03
2023-01-03T04:46:39.356Z,89.13
2023-01-03T04:49:08.680Z,89.57
2023-01-03T04:51:36.398Z,87.30
2023-01-03T04:54:04.518Z,90.85
2023-01-03T04:56:34.775Z,96.57
2023-01-03T04:59:01.722Z,94.30
2023-01-03T05:01:29.172Z,106.82
2023-01-03T05:04:00.904Z,107.93
2023-01-03T05:06:28.877Z,105.43
2023-01-03T05:08:56.048Z,100.90
2023-01-03T05:11:23.842Z,102.78
2023-01-03T05:13:50.795Z,102.85
2023-01-03T05:16:17.972Z,100.15
2023-01-03T05:18:45.136Z,95.40
2023-01-03T05:21:38.438Z,95.57
2023-01-03T05:24:24.782Z,88.43
2023-01-03T05:26:53.146Z,84.60
2023-01-03T05:29:22.167Z,85.80
2023-01-03T05:31:49.984Z,83.25
2023-01-03T05:34:17.214Z,82.32
2023-01-03T05:36:44.185Z,84.18
2023-01-03T05:39:11.322Z,83.35
2023-01-03T05:41:57.074Z,84.55
2023-01-03T05:44:24.456Z,86.90
2023-01-03T05:46:51.935Z,86.32
2023-01-03T05:49:18.814Z,84.07
2023-01-03T05:51:45.784Z,85.88
2023-01-03T05:54:15.247Z,85.43
2023-01-03T05:56:42.773Z,83.82
2023-01-03T05:59:10.171Z,84.45
2023-01-03T06:01:39.795Z,85.30
2023-01-03T06:04:07.368Z,86.40
2023-01-03T06:06:34.504Z,86.68
2023-01-03T06:09:02.115Z,84.35
2023-01-03T06:11:29.108Z,84.90
2023-01-03T06:13:56.059Z,83.25
2023-01-03T06:16:43.210Z,83.47
2023-01-03T06:19:10.367Z,82.05
2023-01-03T06:21:37.880Z,85.15
2023-01-03T06:24:05.238Z,88.70
2023-01-03T06:26:32.130Z,88.35
2023-01-03T06:28:59.727Z,87.43
2023-01-03T06:31:27.102Z,85.32
2023-01-03T06:33:56.401Z,85.78
2023-01-03T06:36:26.255Z,85.18
2023-01-03T06:38:54.130Z,86.40
2023-01-03T06:41:21.819Z,85.50
2023-01-03T06:43:49.185Z,83.20
2023-01-03T06:46:35.493Z,86.95
2023-01-03T06:49:21.030Z,83.13
2023-01-03T06:52:09.175Z,80.97
2023-01-03T06:54:38.979Z,79.28
2023-01-03T06:57:05.977Z,81.38
2023-01-03T06:59:33.155Z,82.63
2023-01-03T07:02:00.231Z,80.97
2023-01-03T07:04:27.757Z,82.68
2023-01-03T07:06:54.803Z,79.85
2023-01-03T07:09:21.738Z,83.30
2023-01-03T07:11:48.711Z,78.25
2023-01-03T07:14:15.587Z,78.80
2023-01-03T07:16:49.073Z,77.97
2023-01-03T07:19:19.319Z,77.63
2023-01-03T07:21:46.864Z,77.05
2023-01-03T07:24:16.157Z,76.70
2023-01-03T07:29:11.318Z,73.70
2023-01-03T07:31:41.865Z,77.70
2023-01-03T07:34:09.613Z,80.20
2023-01-03T07:36:36.850Z,81.35
2023-01-03T07:39:03.862Z,79.07
2023-01-03T07:41:49.334Z,78.35
2023-01-03T07:44:16.479Z,80.60
2023-01-03T07:46:43.396Z,80.22
2023-01-03T07:49:12.152Z,81.55
2023-01-03T07:51:39.574Z,101.43
2023-01-03T07:54:07.820Z,87.65
2023-01-03T07:56:35.456Z,83.53
2023-01-03T07:59:02.633Z,81.30
2023-01-03T08:01:30.634Z,79.97
2023-01-03T08:03:58.139Z,77.72
2023-01-03T08:06:25.035Z,78.63
2023-01-03T08:09:11.731Z,79.38
2023-01-03T08:11:57.619Z,79.72
2023-01-03T08:14:26.631Z,79.45
2023-01-03T08:16:55.332Z,76.47
2023-01-03T08:19:22.849Z,80.22
2023-01-03T08:21:49.855Z,81.38
2023-01-03T08:24:16.803Z,82.05
2023-01-03T08:26:43.859Z,80.70
2023-01-03T08:29:11.741Z,77.18
2023-01-03T08:31:44.560Z,78.50
2023-01-03T08:34:18.586Z,81.18
2023-01-03T08:36:57.211Z,76.50
2023-01-03T08:39:29.342Z,79.70
2023-01-03T08:42:02.454Z,79.15
2023-01-03T08:44:29.488Z,77.40
2023-01-03T08:47:00.329Z,78.75
2023-01-03T08:49:28.093Z,77.10
2023-01-03T08:51:55.285Z,79.28
2023-01-03T08:54:22.229Z,80.43
2023-01-03T08:56:49.109Z,82.50
2023-01-03T08:59:16.389Z,81.55
2023-01-03T09:01:43.362Z,81.25
2023-01-03T09:04:10.422Z,82.70
2023-01-03T09:06:37.471Z,78.65
2023-01-03T09:09:05.805Z,81.28
2023-01-03T09:11:32.854Z,77.77
2023-01-03T09:14:01.142Z,78.78
2023-01-03T09:16:28.005Z,78.97
2023-01-03T09:18:54.992Z,81.70
2023-01-03T09:21:21.942Z,81.85
2023-01-03T09:23:49.074Z,78.90
2023-01-03T09:26:16.039Z,80.80
2023-01-03T09:28:43.090Z,78.78
2023-01-03T09:31:10.046Z,75.80
2023-01-03T09:33:37.583Z,75.45
2023-01-03T09:36:05.350Z,78.10
2023-01-03T09:38:32.208Z,81.38
2023-01-03T09:41:08.857Z,79.78
2023-01-03T09:43:46.090Z,80.43
2023-01-03T09:46:22.034Z,80.13
2023-01-03T09:48:50.630Z,82.07
2023-01-03T09:51:58.209Z,81.72
2023-01-03T09:54:48.417Z,80.78
2023-01-03T09:57:38.181Z,79.72
2023-01-03T10:00:31.154Z,80.07
2023-01-03T10:03:37.495Z,78.63
2023-01-03T10:06:25.542Z,79.82
2023-01-03T10:09:07.121Z,82.20
2023-01-03T10:12:00.252Z,78.80
2023-01-03T10:14:55.654Z,80.60
2023-01-03T10:17:45.667Z,82.38
2023-01-03T10:20:26.278Z,78.07
2023-01-03T10:22:56.832Z,79.82
2023-01-03T10:25:24.721Z,81.70
2023-01-03T10:28:16.448Z,76.65
2023-01-03T10:30:49.425Z,78.95
2023-01-03T10:33:37.987Z,77.88
2023-01-03T10:36:05.936Z,78.88
2023-01-03T10:38:38.429Z,82.13
2023-01-03T10:41:20.807Z,79.78
2023-01-03T10:44:04.521Z,81.63
2023-01-03T10:46:31.705Z,79.47
2023-01-03T10:49:27.739Z,82.97
2023-01-03T10:52:01.203Z,86.18
2023-01-03T10:54:44.369Z,80.50
2023-01-03T10:57:38.268Z,80.20
2023-01-03T11:00:22.121Z,76.60
2023-01-03T11:02:50.140Z,74.30
2023-01-03T11:05:20.631Z,75.07
2023-01-03T11:07:55.568Z,77.03
2023-01-03T11:10:24.500Z,72.40
2023-01-03T11:12:51.528Z,74.68
2023-01-03T11:15:39.166Z,74.28
2023-01-03T11:18:17.477Z,72.82
2023-01-03T11:20:52.510Z,71.55
2023-01-03T11:23:49.069Z,69.60
2023-01-03T11:26:37.647Z,66.60
2023-01-03T11:29:22.804Z,64.73
2023-01-03T11:32:13.798Z,66.38
2023-01-03T11:35:25.904Z,66.20
2023-01-03T11:38:13.847Z,66.38
2023-01-03T11:40:49.364Z,69.78
2023-01-03T11:43:37.731Z,68.47
2023-01-03T11:46:31.060Z,66.82
2023-01-03T11:49:04.031Z,64.28
2023-01-03T11:51:43.520Z,61.47
2023-01-03T11:54:46.521Z,60.13
2023-01-03T11:57:44.791Z,61.55
2023-01-03T12:00:28.739Z,60.38
2023-01-03T12:03:04.313Z,59.20
2023-01-03T12:05:37.626Z,59.38
2023-01-03T12:08:04.725Z,57.00
2023-01-03T12:10:43.550Z,56.88
2023-01-03T12:13:32.116Z,56.45
2023-01-03T12:16:08.864Z,56.78
2023-01-03T12:18:55.154Z,55.85
2023-01-03T12:21:34.871Z,56.92
2023-01-03T12:24:04.947Z,54.88
2023-01-03T12:26:34.133Z,57.95
2023-01-03T12:31:48.000Z,59.30
2023-01-03T12:34:24.488Z,58.65
2023-01-03T12:37:19.039Z,59.08
2023-01-03T12:40:04.068Z,57.58
2023-01-03T12:42:43.823Z,62.28
2023-01-03T12:45:38.644Z,61.65
2023-01-03T12:48:13.529Z,61.90
2023-01-03T12:50:45.783Z,64.10
2023-01-03T12:53:22.227Z,65.57
2023-01-03T12:55:58.351Z,61.42
2023-01-03T12:58:39.730Z,62.58
2023-01-03T13:01:42.337Z,62.20
2023-01-03T13:04:23.783Z,65.60
2023-01-03T13:07:05.896Z,67.43
2023-01-03T13:09:41.046Z,67.32
2023-01-03T13:12:19.104Z,67.40
2023-01-03T13:15:02.836Z,70.18
2023-01-03T13:17:33.155Z,69.82
2023-01-03T13:20:24.432Z,67.10
2023-01-03T13:23:00.297Z,69.55
2023-01-03T13:25:40.608Z,72.55
2023-01-03T13:28:19.971Z,69.40
2023-01-03T13:33:16.607Z,66.80
2023-01-03T13:35:46.818Z,69.65
2023-01-03T13:38:28.957Z,67.00
2023-01-03T13:41:26.101Z,71.00
2023-01-03T13:43:55.372Z,68.65
2023-01-03T13:46:31.728Z,70.57
2023-01-03T13:49:07.930Z,68.35
2023-01-03T13:51:41.227Z,45.80
2023-01-03T13:54:11.093Z,41.78
2023-01-03T13:56:44.103Z,34.80
2023-01-03T13:59:14.046Z,23.20
2023-01-03T14:02:15.842Z,15.45
2023-01-03T14:04:55.047Z,10.70
2023-01-03T14:08:13.950Z,8.23
2023-01-03T14:11:02.731Z,9.20
2023-01-03T14:13:49.954Z,7.22
2023-01-03T14:16:24.999Z,6.80
2023-01-03T14:19:12.185Z,7.30
2023-01-03T14:21:47.996Z,6.97
2023-01-03T14:24:36.278Z,7.10
2023-01-03T14:27:17.778Z,7.77
2023-01-03T14:29:50.980Z,8.43
2023-01-03T14:32:33.995Z,6.95
2023-01-03T14:35:02.219Z,7.85
2023-01-03T14:37:33.294Z,7.50
2023-01-03T14:40:06.367Z,7.15
2023-01-03T14:42:33.498Z,7.55
2023-01-03T14:45:03.816Z,7.22
2023-01-03T14:47:42.880Z,7.88
2023-01-03T14:50:25.772Z,16.73
2023-01-03T14:52:55.651Z,7.68
2023-01-03T14:55:28.280Z,9.18
2023-01-03T14:57:57.015Z,9.40
2023-01-03T15:00:32.632Z,7.80
2023-01-03T15:03:02.203Z,8.90
2023-01-03T15:05:35.451Z,7.35
2023-01-03T15:08:15.292Z,7.88
2023-01-03T15:13:24.133Z,7.93
2023-01-03T15:18:31.816Z,8.52
2023-01-03T15:21:02.365Z,7.97
2023-01-03T15:23:46.509Z,8.98
2023-01-03T15:26:37.850Z,7.93
2023-01-03T15:29:16.856Z,8.55
2023-01-03T15:31:58.770Z,9.43
2023-01-03T15:34:28.707Z,9.38
2023-01-03T15:37:05.471Z,8.88
2023-01-03T15:39:46.967Z,9.68
2023-01-03T15:42:46.063Z,8.00
2023-01-03T15:45:22.647Z,8.18
2023-01-03T15:47:53.063Z,9.07
2023-01-03T15:50:20.666Z,8.20
2023-01-03T15:52:48.621Z,9.15
2023-01-03T15:55:17.361Z,8.45
2023-01-03T15:57:54.108Z,11.23
2023-01-03T16:00:24.104Z,19.27
2023-01-03T16:02:51.329Z,11.60
2023-01-03T16:05:22.641Z,11.15
2023-01-03T16:07:51.752Z,12.27
2023-01-03T16:10:21.795Z,11.77
2023-01-03T16:12:48.889Z,9.20
2023-01-03T16:15:22.683Z,10.45
2023-01-03T16:17:51.651Z,12.70
2023-01-03T16:20:19.386Z,16.08
2023-01-03T16:22:59.623Z,18.60
2023-01-03T16:25:28.041Z,16.20
2023-01-03T16:27:55.208Z,36.03
2023-01-03T16:30:24.226Z,19.90
2023-01-03T16:32:51.966Z,12.63
2023-01-03T16:35:20.618Z,12.68
2023-01-03T16:37:47.768Z,13.40
2023-01-03T16:40:17.326Z,12.48
2023-01-03T16:42:44.585Z,24.25
2023-01-03T16:45:11.753Z,17.30
2023-01-03T16:47:39.955Z,14.32
2023-01-03T16:50:14.415Z,13.48
2023-01-03T16:52:46.625Z,29.40
2023-01-03T16:55:24.162Z,20.42
2023-01-03T16:57:54.541Z,19.98
2023-01-03T17:00:25.008Z,16.08
2023-01-03T17:02:54.507Z,12.48
2023-01-03T17:05:23.828Z,11.20
2023-01-03T17:07:55.913Z,10.75
2023-01-03T17:10:29.148Z,10.93
2023-01-03T17:12:58.403Z,9.65
2023-01-03T17:15:26.483Z,10.32
2023-01-03T17:17:53.825Z,10.35
2023-01-03T17:20:21.898Z,10.52
2023-01-03T17:22:56.501Z,15.63
2023-01-03T17:25:25.092Z,11.75
2023-01-03T17:27:55.195Z,14.85
2023-01-03T17:30:25.316Z,11.50
2023-01-03T17:32:52.381Z,17.23
2023-01-03T17:35:19.604Z,12.73
2023-01-03T17:40:34.771Z,11.93
2023-01-03T17:43:02.483Z,10.45
2023-01-03T17:45:48.010Z,11.85
2023-01-03T17:48:33.872Z,12.45
2023-01-03T17:51:01.803Z,11.98
2023-01-03T17:53:29.678Z,12.10
2023-01-03T17:55:56.611Z,11.35
2023-01-03T17:58:32.213Z,20.77
2023-01-03T18:00:59.371Z,25.10
2023-01-03T18:03:26.431Z,21.13
2023-01-03T18:05:54.850Z,14.15
2023-01-03T18:08:24.163Z,12.25
2023-01-03T18:13:37.114Z,15.50
2023-01-03T18:16:05.091Z,14.23
2023-01-03T18:18:32.863Z,15.75
2023-01-03T18:21:02.065Z,15.90
2023-01-03T18:26:04.501Z,13.48
2023-01-03T18:28:32.240Z,14.05
2023-01-03T18:30:59.310Z,12.93
2023-01-03T18:33:26.348Z,10.50
2023-01-03T18:35:54.016Z,19.33
2023-01-03T18:38:41.160Z,10.60
2023-01-03T18:41:18.474Z,12.75
2023-01-03T18:43:45.473Z,13.93
2023-01-03T18:46:16.909Z,11.23
2023-01-03T18:48:44.044Z,12.20
2023-01-03T18:51:19.453Z,9.20
2023-01-03T18:53:50.988Z,9.68
2023-01-03T18:56:25.937Z,9.38
2023-01-03T18:59:01.577Z,9.57
2023-01-03T19:01:30.104Z,9.57
2023-01-03T19:03:57.745Z,8.30
2023-01-03T19:06:33.856Z,8.23
2023-01-03T19:09:04.235Z,8.48
2023-01-03T19:11:34.730Z,8.27
2023-01-03T19:14:03.452Z,8.77
2023-01-03T19:16:34.311Z,8.37
2023-01-03T19:19:02.609Z,8.48
2023-01-03T19:21:33.504Z,11.60
2023-01-03T19:24:19.681Z,10.43
2023-01-03T19:27:10.339Z,11.77
2023-01-03T19:29:38.498Z,9.68
2023-01-03T19:32:28.388Z,12.90
2023-01-03T19:34:55.770Z,9.90
2023-01-03T19:37:23.775Z,13.30
2023-01-03T19:39:51.541Z,10.20
2023-01-03T19:42:38.929Z,9.48
2023-01-03T19:45:17.169Z,8.60
2023-01-03T19:47:44.421Z,8.70
2023-01-03T19:50:21.782Z,10.07
2023-01-03T19:52:49.120Z,10.05
2023-01-03T19:55:17.508Z,8.70
2023-01-03T19:57:47.571Z,8.85
2023-01-03T20:00:44.069Z,7.97
2023-01-03T20:03:25.688Z,7.97
2023-01-03T20:05:53.140Z,7.65
2023-01-03T20:08:20.248Z,8.98
2023-01-03T20:10:47.643Z,8.98
2023-01-03T20:13:20.404Z,7.93
2023-01-03T20:15:48.792Z,8.27
2023-01-03T20:18:28.619Z,7.25
2023-01-03T20:21:06.500Z,7.63
2023-01-03T20:23:37.344Z,7.97
2023-01-03T20:26:05.045Z,7.63
2023-01-03T20:28:32.592Z,7.35
2023-01-03T20:31:01.118Z,7.82
2023-01-03T20:33:28.677Z,7.85
2023-01-03T20:36:11.588Z,8.40
2023-01-03T20:38:44.547Z,7.00
2023-01-03T20:41:12.745Z,7.80
2023-01-03T20:43:39.628Z,8.07
2023-01-03T20:46:10.267Z,7.70
2023-01-03T20:48:37.241Z,8.20
2023-01-03T20:51:04.159Z,7.32
2023-01-03T20:53:31.117Z,8.00
2023-01-03T20:55:57.986Z,8.85
2023-01-03T20:58:25.729Z,7.90
2023-01-03T21:00:58.168Z,8.13
2023-01-03T21:03:30.951Z,10.00
2023-01-03T21:05:59.106Z,8.48
2023-01-03T21:08:44.521Z,6.93
2023-01-03T21:11:12.342Z,7.20
2023-01-03T21:13:39.665Z,7.35
2023-01-03T21:16:26.085Z,6.75
2023-01-03T21:18:53.541Z,7.25
2023-01-03T21:21:22.121Z,6.43
2023-01-03T21:23:49.241Z,7.82
2023-01-03T21:26:16.206Z,7.00
2023-01-03T21:28:43.258Z,7.40
2023-01-03T21:31:17.377Z,7.60
2023-01-03T21:33:44.888Z,7.88
2023-01-03T21:36:23.428Z,8.32
2023-01-03T21:38:51.613Z,8.07
2023-01-03T21:41:21.549Z,7.25
2023-01-03T21:43:48.625Z,8.48
2023-01-03T21:46:17.927Z,8.20
2023-01-03T21:48:45.105Z,8.98
2023-01-03T21:51:13.880Z,8.35
2023-01-03T21:53:41.615Z,8.68
2023-01-03T21:56:19.190Z,8.70
2023-01-03T21:58:46.240Z,9.77
2023-01-03T22:01:16.901Z,9.20
2023-01-03T22:04:02.524Z,9.82
2023-01-03T22:06:29.533Z,8.75
2023-01-03T22:08:57.449Z,9.55
2023-01-03T22:11:25.207Z,10.52
2023-01-03T22:13:55.285Z,10.27
2023-01-03T22:16:23.117Z,10.15
2023-01-03T22:18:50.020Z,9.98
2023-01-03T22:21:17.174Z,10.52
2023-01-03T22:23:43.994Z,10.45
2023-01-03T22:26:13.096Z,10.27
2023-01-03T22:28:42.425Z,11.15
2023-01-03T22:31:22.837Z,10.88
2023-01-03T22:33:50.768Z,10.35
2023-01-03T22:36:18.016Z,11.43
2023-01-03T22:38:45.209Z,11.90
2023-01-03T22:41:17.260Z,11.10
2023-01-03T22:43:45.443Z,11.60
2023-01-03T22:46:14.790Z,11.07
2023-01-03T22:48:42.771Z,10.55
2023-01-03T22:51:12.802Z,10.82
2023-01-03T22:53:41.468Z,10.93
2023-01-03T22:56:11.272Z,11.32
2023-01-03T22:58:38.757Z,11.82
2023-01-03T23:01:16.892Z,11.65
2023-01-03T23:03:45.364Z,12.45
2023-01-03T23:06:15.731Z,21.85
2023-01-03T23:08:43.334Z,13.75
2023-01-03T23:11:34.987Z,11.77
2023-01-03T23:14:05.282Z,12.50
2023-01-03T23:16:32.474Z,11.20
2023-01-03T23:19:02.335Z,12.27
2023-01-03T23:21:29.427Z,11.68
2023-01-03T23:23:56.517Z,11.90
2023-01-03T23:26:23.511Z,11.38
2023-01-03T23:28:54.628Z,11.70
2023-01-03T23:31:21.730Z,11.65
2023-01-03T23:33:49.026Z,11.45
2023-01-03T23:36:17.146Z,10.63
2023-01-03T23:38:44.044Z,10.95
2023-01-03T23:41:11.251Z,10.70
2023-01-03T23:43:38.825Z,10.80
2023-01-03T23:46:06.619Z,10.98
2023-01-03T23:48:33.962Z,10.07
2023-01-03T23:51:08.575Z,10.70
2023-01-03T23:53:37.983Z,10.82
2023-01-03T23:56:09.565Z,10.82
2023-01-03T23:58:36.580Z,9.98
